KTKX

Details ICAO KTKX
Name KENNETT MEM
Region United States
Timezone America/Chicago (UTC-6.0)
Plans Departing 3
Arriving 0
Stats Elevation 262 ft / 80 m (AMSL)
Location 36.226560° -90.036204°
Runways 2
Magnetic Variation 1.421° W
Sunrise 2017-12-17 13:06:51 UTC / 2017-12-17 07:06:51 Local
Sunset 2017-12-17 22:48:40 UTC / 2017-12-17 16:48:40 Local
Advertisement - Login to hide

Runways

ID Width Length Bearing (true) Bearing (mag) Surface Threshold Offset Overrun Length
02 75 ft / 23 m 5,010 ft / 1,527 m 17.80° 19.22° Concrete 0 ft / 0 m 0 ft / 0 m
18 75 ft / 23 m 3,020 ft / 920 m 178.53° 179.95° Asphalt 0 ft / 0 m 0 ft / 0 m
20 75 ft / 23 m 5,010 ft / 1,527 m 197.80° 199.22° Concrete 0 ft / 0 m 0 ft / 0 m
36 75 ft / 23 m 3,020 ft / 920 m 358.53° 359.95° Asphalt 0 ft / 0 m 0 ft / 0 m

Map

Weather


0- 5 10 15 20 25 30 35+ Temperature / ° C

Clouds and Precipitation
Forecast for 2017-12-18 00:00 UTC. Updated an hour ago

Ground ~20,000 ft ~40,000 ft Winds

METAR

KTKX 172155Z AUTO 00000KT 6SM BR OVC011 09/07 A3009 RMK AO2

TAF

Not found

Frequencies

Unicom 122.80 MHz CTAF/UNICOM
Warning: Do not use this data for real-world aviation or navigation. No guarantee of current accuracy is given.